Time;durP1;ratioP1;P1;durP2;ratioP2;P2;SDS_P1;SDS_P2;PMS_P1;PMS_P2;Temp;Humidity;BMP_temperature;BMP_pressure;BME280_temperature;BME280_humidity;BME280_pressure;Samples;Min_cycle;Max_cycle;Signal;HPM_P1;HPM_P2
2023/04/30 00:00:59;;;;;;;0.70;0.70;;;;;;;14.19;90.80;99930.78;5053541;28;20194;-73
2023/04/30 00:03:27;;;;;;;0.70;0.70;;;;;;;14.15;92.55;99927.31;5050071;28;20202;-73
2023/04/30 00:05:54;;;;;;;0.80;0.80;;;;;;;14.04;94.79;99928.22;5083193;28;20190;-73
2023/04/30 00:08:21;;;;;;;0.68;0.68;;;;;;;13.77;96.03;99896.09;5073289;28;20284;-72
2023/04/30 00:10:48;;;;;;;0.60;0.60;;;;;;;13.56;97.59;99866.56;5089562;28;20194;-73
2023/04/30 00:13:15;;;;;;;0.68;0.68;;;;;;;13.68;98.82;99893.50;5089471;28;20650;-72
2023/04/30 00:15:42;;;;;;;0.88;0.88;;;;;;;13.78;98.76;99915.19;5088420;28;20221;-74
2023/04/30 00:18:08;;;;;;;0.70;0.70;;;;;;;13.51;97.80;99876.13;5089177;28;20733;-73
2023/04/30 00:20:36;;;;;;;0.60;0.60;;;;;;;13.66;99.53;99912.63;5088872;28;20673;-73
2023/04/30 00:23:03;;;;;;;0.70;0.70;;;;;;;13.34;100.00;99891.78;5070769;28;20283;-73
2023/04/30 00:25:30;;;;;;;0.70;0.70;;;;;;;13.43;99.79;99906.50;5089115;28;20198;-72
2023/04/30 00:27:57;;;;;;;0.70;0.70;;;;;;;13.43;99.66;99914.31;5066915;28;20203;-73
2023/04/30 00:30:23;;;;;;;0.60;0.60;;;;;;;13.44;98.71;99916.06;5089360;28;20195;-73
2023/04/30 00:32:50;;;;;;;0.60;0.60;;;;;;;13.26;97.71;99885.69;5036123;28;20198;-73
2023/04/30 00:35:17;;;;;;;0.60;0.60;;;;;;;13.38;97.52;99915.19;5047954;28;20661;-73
2023/04/30 00:37:46;;;;;;;0.70;0.70;;;;;;;13.41;98.54;99911.75;5090291;28;20253;-73
2023/04/30 00:40:13;;;;;;;0.70;0.70;;;;;;;13.29;99.75;99898.69;5041116;28;20217;-73
2023/04/30 00:42:40;;;;;;;0.60;0.60;;;;;;;13.34;100.00;99918.66;5092689;28;20727;-73
2023/04/30 00:45:08;;;;;;;0.70;0.70;;;;;;;13.35;100.00;99919.53;5092707;28;20277;-73
2023/04/30 00:47:35;;;;;;;1.10;1.10;;;;;;;13.32;100.00;99912.59;5056481;28;20233;-73
2023/04/30 00:50:02;;;;;;;0.70;0.70;;;;;;;13.31;100.00;99913.44;5093371;28;20654;-73
2023/04/30 00:52:29;;;;;;;0.60;0.60;;;;;;;13.38;100.00;99906.50;5080064;28;20206;-73
2023/04/30 00:54:58;;;;;;;0.80;0.80;;;;;;;13.42;100.00;99910.84;5093032;28;20193;-73
2023/04/30 00:57:26;;;;;;;0.68;0.68;;;;;;;13.37;100.00;99903.06;5091333;28;20194;-73
2023/04/30 00:59:54;;;;;;;1.00;1.00;;;;;;;13.26;100.00;99898.69;5072064;28;20202;-73
2023/04/30 01:02:21;;;;;;;0.90;0.90;;;;;;;13.18;100.00;99898.69;5085317;28;20225;-73
2023/04/30 01:04:48;;;;;;;0.70;0.70;;;;;;;13.15;100.00;99893.47;5093309;28;20206;-73
2023/04/30 01:07:15;;;;;;;0.70;0.70;;;;;;;13.10;100.00;99894.31;5090905;28;20206;-74
2023/04/30 01:09:42;;;;;;;0.70;0.70;;;;;;;13.04;100.00;99897.75;5039396;28;20210;-73
2023/04/30 01:12:15;;;;;;;0.70;0.70;;;;;;;13.10;100.00;99897.78;5093239;28;20206;-73
2023/04/30 01:14:55;;;;;;;0.60;0.60;;;;;;;13.09;100.00;99896.03;5093406;28;20233;-74
2023/04/30 01:17:28;;;;;;;0.70;0.70;;;;;;;12.99;100.00;99896.88;5091785;28;20198;-73
2023/04/30 01:19:56;;;;;;;0.70;0.70;;;;;;;12.94;100.00;99898.59;5092580;28;20205;-73
2023/04/30 01:22:37;;;;;;;1.02;1.02;;;;;;;12.97;100.00;99896.00;5092768;28;20229;-73
2023/04/30 01:25:21;;;;;;;0.60;0.60;;;;;;;12.85;100.00;99867.34;5092792;28;20221;-73
2023/04/30 01:28:05;;;;;;;0.70;0.70;;;;;;;12.93;100.00;99883.84;5056382;28;20225;-73
2023/04/30 01:30:33;;;;;;;0.70;0.70;;;;;;;12.69;100.00;99865.59;5092542;28;20261;-73
2023/04/30 01:33:00;;;;;;;0.60;0.60;;;;;;;12.81;100.00;99886.41;5089729;28;20206;-73
2023/04/30 01:35:52;;;;;;;0.75;0.75;;;;;;;12.86;100.00;99882.97;5092085;28;20197;-72
2023/04/30 01:38:32;;;;;;;0.70;0.70;;;;;;;12.76;100.00;99869.94;5092243;28;20209;-73
2023/04/30 01:41:09;;;;;;;1.85;1.35;;;;;;;12.83;100.00;99882.09;5092812;28;20231;-73
2023/04/30 01:43:47;;;;;;;0.68;0.68;;;;;;;12.82;100.00;99880.34;5072317;28;20226;-73
2023/04/30 01:46:21;;;;;;;1.17;1.17;;;;;;;12.76;100.00;99869.94;5045074;28;20222;-73
2023/04/30 01:48:58;;;;;;;0.70;0.70;;;;;;;12.76;100.00;99886.41;5090903;28;20563;-73
2023/04/30 01:51:31;;;;;;;0.80;0.80;;;;;;;12.58;100.00;99859.47;5057830;28;20280;-74
2023/04/30 01:54:06;;;;;;;0.80;0.80;;;;;;;12.54;100.00;99863.78;5085958;28;20213;-74
2023/04/30 01:56:41;;;;;;;0.60;0.60;;;;;;;12.64;100.00;99881.16;5084208;28;20236;-73
2023/04/30 01:59:10;;;;;;;0.65;0.65;;;;;;;12.55;100.00;99867.28;5075144;28;20237;-73
2023/04/30 02:01:37;;;;;;;0.70;0.70;;;;;;;12.60;98.06;99882.00;5073156;28;20211;-73
2023/04/30 02:04:04;;;;;;;0.70;0.70;;;;;;;12.58;98.86;99877.69;5072134;28;20298;-73
2023/04/30 02:06:31;;;;;;;0.70;0.70;;;;;;;12.43;98.06;99844.69;5090038;28;20199;-73
2023/04/30 02:09:01;;;;;;;0.70;0.70;;;;;;;12.53;95.98;99871.56;5092293;28;20288;-73
2023/04/30 02:11:28;;;;;;;0.65;0.65;;;;;;;12.02;94.90;99795.13;5091989;28;20197;-73
2023/04/30 02:13:55;;;;;;;0.80;0.80;;;;;;;12.47;95.13;99884.56;5091512;28;20571;-73
2023/04/30 02:16:24;;;;;;;0.60;0.60;;;;;;;12.52;95.00;99888.06;5091624;28;20205;-73
2023/04/30 02:18:50;;;;;;;0.70;0.70;;;;;;;12.46;93.43;99882.81;5072174;28;20202;-73
2023/04/30 02:21:17;;;;;;;0.60;0.60;;;;;;;12.40;93.08;99887.16;5082538;28;20201;-73
2023/04/30 02:23:44;;;;;;;0.60;0.60;;;;;;;12.39;92.96;99882.81;5086474;28;20308;-74
2023/04/30 02:26:11;;;;;;;0.70;0.70;;;;;;;12.27;93.73;99866.28;5091800;28;20248;-74
2023/04/30 02:28:38;;;;;;;0.70;0.70;;;;;;;12.39;94.21;99879.34;5078699;28;20216;-74
2023/04/30 02:31:05;;;;;;;0.73;0.73;;;;;;;12.30;92.87;99869.78;5091887;28;20262;-73
2023/04/30 02:33:33;;;;;;;0.65;0.65;;;;;;;11.94;92.42;99796.84;5091075;28;20206;-73
2023/04/30 02:36:00;;;;;;;0.90;0.90;;;;;;;12.43;92.26;99884.56;5091676;28;20205;-74
2023/04/30 02:38:27;;;;;;;0.60;0.60;;;;;;;12.40;93.45;99886.28;5075317;28;20214;-74
2023/04/30 02:40:54;;;;;;;0.77;0.77;;;;;;;12.28;93.21;99863.69;5091590;28;20213;-74
2023/04/30 02:43:20;;;;;;;0.60;0.60;;;;;;;11.78;92.80;99780.28;5090899;28;20236;-73
2023/04/30 02:45:47;;;;;;;0.60;0.60;;;;;;;12.34;92.51;99883.66;5091188;28;20579;-73
2023/04/30 02:48:14;;;;;;;0.60;0.60;;;;;;;12.37;92.94;99884.53;5091247;28;20235;-74
2023/04/30 02:50:42;;;;;;;0.90;0.90;;;;;;;12.52;94.95;99880.25;5091530;28;20198;-74
2023/04/30 02:53:09;;;;;;;0.73;0.73;;;;;;;12.41;95.20;99888.03;5091119;28;20517;-74
2023/04/30 02:55:36;;;;;;;0.80;0.80;;;;;;;12.31;95.42;99866.28;5090667;28;20220;-74
2023/04/30 02:58:03;;;;;;;0.70;0.70;;;;;;;12.35;95.98;99882.78;5089724;28;20623;-73
2023/04/30 03:00:29;;;;;;;0.60;0.60;;;;;;;12.34;97.39;99894.06;5090806;28;20765;-73
2023/04/30 03:02:56;;;;;;;0.75;0.75;;;;;;;12.30;98.36;99893.19;5090854;28;20222;-73
2023/04/30 03:05:24;;;;;;;0.70;0.70;;;;;;;12.30;98.45;99895.78;5090907;28;20625;-73
2023/04/30 03:07:52;;;;;;;0.80;0.80;;;;;;;12.39;98.42;99901.00;5090304;28;20209;-73
2023/04/30 03:10:19;;;;;;;0.70;0.70;;;;;;;12.34;99.13;99905.31;5090585;28;20197;-73
2023/04/30 03:12:45;;;;;;;0.70;0.70;;;;;;;12.27;100.00;99877.53;5046977;28;20549;-73
2023/04/30 03:15:12;;;;;;;0.60;0.60;;;;;;;12.29;100.00;99887.97;5082132;28;20202;-73
2023/04/30 03:17:39;;;;;;;0.70;0.70;;;;;;;12.42;100.00;99900.13;5090050;28;20207;-73
2023/04/30 03:20:07;;;;;;;0.70;0.70;;;;;;;12.52;100.00;99901.06;5090502;28;20201;-73
2023/04/30 03:22:34;;;;;;;0.70;0.70;;;;;;;12.50;100.00;99893.25;5084655;28;20218;-75
2023/04/30 03:25:02;;;;;;;0.70;0.70;;;;;;;12.61;100.00;99894.16;5080527;28;20203;-73
2023/04/30 03:27:29;;;;;;;0.70;0.70;;;;;;;12.65;100.00;99895.03;5089971;28;20221;-74
2023/04/30 03:29:56;;;;;;;0.70;0.70;;;;;;;12.77;100.00;99898.53;5089665;28;20194;-73
2023/04/30 03:32:22;;;;;;;0.65;0.65;;;;;;;12.87;100.00;99899.47;5086693;28;20199;-74
2023/04/30 03:34:50;;;;;;;0.70;0.70;;;;;;;13.00;95.63;99897.75;5039163;28;20197;-73
2023/04/30 03:37:17;;;;;;;0.70;0.70;;;;;;;13.02;96.17;99904.69;5070926;28;20715;-73
2023/04/30 03:39:44;;;;;;;0.80;0.80;;;;;;;12.93;95.93;99881.25;5090521;28;20596;-73
2023/04/30 03:42:12;;;;;;;0.80;0.80;;;;;;;13.18;95.73;99905.63;5052485;28;20198;-73
2023/04/30 03:44:38;;;;;;;0.70;0.70;;;;;;;13.26;95.83;99911.72;5070635;28;20199;-72
2023/04/30 03:47:05;;;;;;;0.80;0.80;;;;;;;13.37;94.40;99913.47;5087933;28;20234;-72
2023/04/30 03:49:32;;;;;;;0.80;0.80;;;;;;;13.50;94.01;99919.53;5090330;28;20190;-72
2023/04/30 03:51:59;;;;;;;0.70;0.70;;;;;;;13.59;93.88;99919.53;5051004;28;20206;-72
2023/04/30 03:54:26;;;;;;;0.70;0.70;;;;;;;13.70;94.52;99917.81;5085330;28;20202;-73
2023/04/30 03:56:53;;;;;;;0.70;0.70;;;;;;;13.87;94.25;99920.41;5090540;28;20604;-72
2023/04/30 03:59:21;;;;;;;0.80;0.80;;;;;;;13.85;92.46;99901.28;5084873;28;20202;-72
2023/04/30 04:01:48;;;;;;;0.70;0.70;;;;;;;13.85;91.57;99898.69;5067822;28;20199;-74
2023/04/30 04:04:15;;;;;;;0.90;0.90;;;;;;;14.24;94.27;99926.41;5070062;28;20308;-73
2023/04/30 04:06:42;;;;;;;1.08;1.08;;;;;;;15.02;90.72;99933.09;5087180;28;20205;-74
2023/04/30 04:09:09;;;;;;;0.68;0.68;;;;;;;16.19;87.27;99938.34;5069551;28;20217;-73
2023/04/30 04:11:36;;;;;;;0.50;0.50;;;;;;;16.91;90.63;99945.41;5083115;28;20205;-73
2023/04/30 04:14:02;;;;;;;0.60;0.60;;;;;;;16.84;94.55;99944.59;5082633;28;20206;-73
2023/04/30 04:16:30;;;;;;;0.80;0.80;;;;;;;17.35;95.32;99943.91;5089473;28;20253;-73
2023/04/30 04:18:57;;;;;;;0.60;0.60;;;;;;;17.80;90.14;99930.97;5074752;28;20213;-73
2023/04/30 04:21:24;;;;;;;0.60;0.60;;;;;;;18.58;82.17;99947.09;5081599;28;20286;-73
2023/04/30 04:23:51;;;;;;;0.70;0.70;;;;;;;19.34;77.58;99953.34;5089950;28;20226;-73
2023/04/30 04:26:20;;;;;;;0.80;0.80;;;;;;;20.09;71.53;99955.91;5089460;28;20210;-73
2023/04/30 04:28:47;;;;;;;0.60;0.60;;;;;;;20.55;64.20;99960.00;5089630;28;20266;-73
2023/04/30 04:31:14;;;;;;;0.60;0.60;;;;;;;20.63;60.52;99956.25;5082011;28;20277;-73
2023/04/30 04:33:42;;;;;;;0.60;0.60;;;;;;;20.54;59.29;99955.66;5077884;28;20218;-73
2023/04/30 04:36:09;;;;;;;0.70;0.70;;;;;;;20.02;59.65;99954.34;5087908;28;20202;-73
2023/04/30 04:38:36;;;;;;;0.60;0.60;;;;;;;19.56;62.38;99956.38;5089339;28;20205;-74
2023/04/30 04:41:03;;;;;;;0.60;0.60;;;;;;;19.14;64.38;99947.66;5089594;28;20205;-73
2023/04/30 04:43:30;;;;;;;0.70;0.70;;;;;;;18.30;68.82;99946.69;5089487;28;20225;-73
2023/04/30 04:45:56;;;;;;;0.60;0.60;;;;;;;17.88;75.40;99939.59;5088686;28;20241;-73
2023/04/30 04:48:23;;;;;;;0.60;0.60;;;;;;;18.05;76.10;99949.81;5070171;28;20202;-74
2023/04/30 04:50:52;;;;;;;1.00;1.00;;;;;;;18.83;73.28;99950.94;5089290;28;20297;-74
2023/04/30 04:53:18;;;;;;;0.60;0.60;;;;;;;19.44;68.31;99947.00;5047390;28;20206;-74
2023/04/30 04:55:45;;;;;;;0.70;0.70;;;;;;;20.26;63.64;99956.34;5049114;28;20213;-74
2023/04/30 04:58:12;;;;;;;0.60;0.60;;;;;;;20.88;60.32;99964.31;5081430;28;20902;-74
2023/04/30 05:00:39;;;;;;;0.77;0.77;;;;;;;21.58;57.53;99956.97;5087476;28;20195;-74
2023/04/30 05:03:06;;;;;;;0.60;0.60;;;;;;;22.10;54.19;99967.56;5083096;28;20233;-75
2023/04/30 05:05:32;;;;;;;0.80;0.65;;;;;;;23.01;52.11;99968.75;5089221;28;20206;-74
2023/04/30 05:08:01;;;;;;;0.70;0.70;;;;;;;23.21;49.49;99961.78;5087321;28;20214;-76
2023/04/30 05:10:27;;;;;;;0.80;0.80;;;;;;;23.52;48.11;99944.72;5086823;28;20197;-75
2023/04/30 05:12:54;;;;;;;0.50;0.50;;;;;;;22.99;48.37;99968.78;5087991;28;20198;-75
2023/04/30 05:15:21;;;;;;;0.65;0.65;;;;;;;23.89;47.34;99959.97;5088937;28;20201;-75
2023/04/30 05:17:48;;;;;;;0.52;0.52;;;;;;;24.02;46.63;99951.44;5087628;28;20195;-75
2023/04/30 05:20:15;;;;;;;4.15;0.93;;;;;;;23.81;45.70;99959.44;5090460;28;20202;-76
2023/04/30 05:22:41;;;;;;;0.70;0.70;;;;;;;23.35;46.86;99963.03;5092392;28;20190;-77
2023/04/30 05:25:10;;;;;;;0.60;0.60;;;;;;;21.93;49.27;99966.41;5091679;28;20669;-76
2023/04/30 05:27:37;;;;;;;0.60;0.60;;;;;;;20.75;51.37;99974.38;5092375;28;20202;-76
2023/04/30 05:30:04;;;;;;;0.60;0.60;;;;;;;19.63;54.58;99971.97;5091671;28;20210;-74
2023/04/30 05:32:31;;;;;;;0.60;0.60;;;;;;;17.80;61.96;99972.94;5092674;28;20206;-73
2023/04/30 05:34:57;;;;;;;0.70;0.70;;;;;;;18.05;64.89;99973.44;5091764;28;20263;-74
2023/04/30 05:37:24;;;;;;;0.80;0.80;;;;;;;17.98;66.61;99970.03;5092054;28;20194;-74
2023/04/30 05:39:52;;;;;;;0.60;0.60;;;;;;;17.90;67.09;99966.69;5089682;28;20198;-74
2023/04/30 05:42:20;;;;;;;0.60;0.60;;;;;;;17.99;68.95;99963.88;5078450;28;20252;-74
2023/04/30 05:44:48;;;;;;;0.50;0.50;;;;;;;17.86;71.45;99967.63;5075876;28;20316;-73
2023/04/30 05:47:15;;;;;;;0.70;0.70;;;;;;;17.56;72.43;99954.94;5091408;28;20279;-74
2023/04/30 05:49:42;;;;;;;0.70;0.70;;;;;;;17.34;73.27;99957.88;5087085;28;20195;-74
2023/04/30 05:52:09;;;;;;;0.70;0.70;;;;;;;17.26;70.60;99975.50;5076298;28;20206;-76
2023/04/30 05:54:35;;;;;;;0.70;0.70;;;;;;;17.26;72.41;99972.88;5082240;28;20688;-76
2023/04/30 05:57:02;;;;;;;0.60;0.60;;;;;;;17.11;75.70;99978.31;5080982;28;20256;-76
2023/04/30 05:59:31;;;;;;;0.60;0.60;;;;;;;17.04;76.47;99981.03;5076126;28;20207;-77
2023/04/30 06:01:58;;;;;;;1.00;1.00;;;;;;;17.41;74.04;99974.38;5079013;28;20221;-76
2023/04/30 06:04:24;;;;;;;0.65;0.65;;;;;;;17.35;75.08;99969.25;5039689;28;20313;-71
2023/04/30 06:06:51;;;;;;;0.70;0.70;;;;;;;17.48;83.76;99970.78;5075296;28;20205;-70
2023/04/30 06:09:18;;;;;;;0.80;0.80;;;;;;;17.53;77.86;99962.84;5046342;28;20366;-71
2023/04/30 06:11:49;;;;;;;0.68;0.68;;;;;;;17.24;78.42;99979.88;5092349;28;20620;-70
2023/04/30 06:14:16;;;;;;;1.00;1.00;;;;;;;17.23;79.87;99962.41;5084515;28;20207;-70
2023/04/30 06:16:44;;;;;;;0.70;0.70;;;;;;;17.50;70.75;99981.25;5084513;28;20201;-71
2023/04/30 06:19:11;;;;;;;0.70;0.70;;;;;;;17.59;72.97;99968.03;5087464;28;20206;-71
2023/04/30 06:21:39;;;;;;;0.90;0.90;;;;;;;18.09;71.83;99975.09;5064438;28;20218;-70
2023/04/30 06:24:06;;;;;;;1.80;1.70;;;;;;;18.15;73.99;99965.38;5079085;28;20227;-70
2023/04/30 06:26:33;;;;;;;0.60;0.60;;;;;;;18.23;75.89;99997.56;5085319;28;20202;-71
2023/04/30 06:28:59;;;;;;;0.70;0.70;;;;;;;18.59;72.88;99998.69;5090435;28;20213;-70
2023/04/30 06:31:26;;;;;;;0.70;0.70;;;;;;;18.50;71.73;100000.59;5079446;28;20572;-70
2023/04/30 06:33:54;;;;;;;0.80;0.80;;;;;;;18.56;73.19;99988.25;5068166;28;20271;-75
2023/04/30 06:36:21;;;;;;;0.73;0.73;;;;;;;18.58;69.20;99996.13;5090133;28;20245;-74
2023/04/30 06:38:48;;;;;;;0.70;0.70;;;;;;;18.52;67.37;99978.69;5087506;28;20232;-73
2023/04/30 06:41:15;;;;;;;0.70;0.70;;;;;;;18.85;66.30;100000.84;5091039;28;20267;-73
2023/04/30 06:43:43;;;;;;;0.70;0.70;;;;;;;18.98;64.89;99997.06;5090801;28;20224;-75
2023/04/30 06:46:10;;;;;;;0.60;0.60;;;;;;;18.86;62.22;99999.06;5091270;28;20256;-76
2023/04/30 06:48:37;;;;;;;0.80;0.80;;;;;;;18.77;62.80;99993.09;5090597;28;20610;-74
2023/04/30 06:51:05;;;;;;;0.63;0.63;;;;;;;18.63;62.86;99994.25;5071962;28;20201;-75
2023/04/30 06:53:32;;;;;;;0.70;0.70;;;;;;;18.37;65.04;99993.88;5082256;28;20205;-75
2023/04/30 06:55:59;;;;;;;0.63;0.63;;;;;;;18.33;64.70;99993.06;5090677;28;20198;-74
2023/04/30 06:58:27;;;;;;;0.60;0.60;;;;;;;18.49;65.66;100006.75;5065005;28;20198;-76
2023/04/30 07:00:54;;;;;;;0.60;0.60;;;;;;;18.93;71.68;100003.31;5075337;28;20222;-73
2023/04/30 07:03:20;;;;;;;0.70;0.70;;;;;;;18.83;63.19;99985.09;5078705;28;20233;-76
2023/04/30 07:05:47;;;;;;;0.70;0.70;;;;;;;18.89;64.35;100002.50;5088085;28;20210;-72
2023/04/30 07:08:16;;;;;;;0.63;0.63;;;;;;;18.89;62.93;99994.63;5054419;28;20210;-72
2023/04/30 07:10:42;;;;;;;0.60;0.60;;;;;;;18.99;66.12;99962.00;5082862;28;20205;-74
2023/04/30 07:13:09;;;;;;;0.70;0.70;;;;;;;19.44;59.97;99989.06;5090682;28;20220;-74
2023/04/30 07:15:36;;;;;;;0.70;0.70;;;;;;;19.53;58.47;100006.41;5090807;28;20198;-74
2023/04/30 07:18:03;;;;;;;0.85;0.85;;;;;;;19.61;62.88;100012.38;5086134;28;20202;-73
2023/04/30 07:20:30;;;;;;;0.70;0.70;;;;;;;19.31;57.05;99985.84;5089956;28;20206;-68
2023/04/30 07:22:57;;;;;;;1.17;1.17;;;;;;;19.22;57.04;100001.81;5090200;28;20617;-67
2023/04/30 07:25:25;;;;;;;0.65;0.65;;;;;;;18.99;57.38;99942.72;5090358;28;20347;-72
2023/04/30 07:27:53;;;;;;;0.63;0.63;;;;;;;19.48;56.82;100008.28;5088624;28;20664;-72
2023/04/30 07:30:19;;;;;;;0.60;0.60;;;;;;;19.45;57.20;100013.59;5088334;28;20210;-72
2023/04/30 07:32:47;;;;;;;0.60;0.60;;;;;;;19.16;59.00;100012.44;5089524;28;20229;-71
2023/04/30 07:35:14;;;;;;;0.70;0.70;;;;;;;19.19;59.35;100020.25;5089487;28;20217;-70
2023/04/30 07:37:42;;;;;;;0.55;0.55;;;;;;;19.75;67.09;100010.28;5078973;28;20217;-70
2023/04/30 07:40:11;;;;;;;0.60;0.60;;;;;;;20.02;61.89;100007.00;5090071;28;20198;-69
2023/04/30 07:42:40;;;;;;;0.60;0.60;;;;;;;20.05;58.60;100017.44;5005488;28;20263;-71
2023/04/30 07:45:08;;;;;;;3.72;1.02;;;;;;;19.33;59.92;100012.94;5089275;28;20752;-71
2023/04/30 07:47:35;;;;;;;0.63;0.63;;;;;;;19.28;61.48;100016.59;5089503;28;20261;-70
2023/04/30 07:50:02;;;;;;;0.60;0.60;;;;;;;19.25;61.47;99991.22;5044601;28;20217;-74
2023/04/30 07:52:29;;;;;;;0.65;0.65;;;;;;;19.44;61.03;99989.06;5075692;28;20210;-74
2023/04/30 07:54:55;;;;;;;0.70;0.70;;;;;;;19.31;60.21;100019.16;5084778;28;20213;-74
2023/04/30 07:57:22;;;;;;;0.65;0.65;;;;;;;19.71;60.91;100006.00;5080792;28;20211;-75
2023/04/30 07:59:50;;;;;;;0.70;0.70;;;;;;;19.92;60.25;100008.13;5080949;28;20190;-74
2023/04/30 08:02:17;;;;;;;0.60;0.60;;;;;;;20.07;60.00;100020.91;5080158;28;20206;-74
2023/04/30 08:04:44;;;;;;;0.60;0.60;;;;;;;19.88;59.28;100013.50;5078572;28;20286;-73
2023/04/30 08:07:11;;;;;;;0.60;0.60;;;;;;;19.79;59.74;100004.06;5081398;28;20317;-73
2023/04/30 08:09:38;;;;;;;0.90;0.90;;;;;;;20.11;59.52;100022.56;5083208;28;20293;-73
2023/04/30 08:12:05;;;;;;;0.88;0.88;;;;;;;20.12;61.00;100019.03;5089704;28;20213;-74
2023/04/30 08:14:32;;;;;;;0.60;0.60;;;;;;;19.82;61.46;100014.50;5089744;28;20687;-73
2023/04/30 08:17:01;;;;;;;3.30;1.15;;;;;;;19.62;61.87;100016.75;5088961;28;20202;-73
2023/04/30 08:19:28;;;;;;;0.60;0.60;;;;;;;19.68;62.57;100006.94;5088470;28;20226;-73
2023/04/30 08:21:55;;;;;;;0.60;0.60;;;;;;;19.38;61.37;100004.97;5078719;28;20222;-73
2023/04/30 08:24:22;;;;;;;0.80;0.80;;;;;;;19.58;61.95;100012.47;5043282;28;20237;-74
2023/04/30 08:26:49;;;;;;;0.70;0.70;;;;;;;19.48;62.86;100003.00;5081695;28;20202;-74
2023/04/30 08:29:15;;;;;;;0.70;0.70;;;;;;;19.57;61.76;100006.31;5069299;28;20194;-74
2023/04/30 08:31:42;;;;;;;0.50;0.50;;;;;;;19.23;63.36;100002.66;5069461;28;20206;-74
2023/04/30 08:34:10;;;;;;;0.95;0.95;;;;;;;19.23;64.15;100002.66;5085962;28;20263;-73
2023/04/30 08:36:37;;;;;;;0.60;0.60;;;;;;;19.40;63.38;99994.41;5084877;28;20213;-73
2023/04/30 08:39:04;;;;;;;0.60;0.60;;;;;;;19.29;62.49;99999.91;5089510;28;20209;-70
2023/04/30 08:41:33;;;;;;;0.70;0.70;;;;;;;19.60;62.08;100002.75;5089205;28;20202;-71
2023/04/30 08:44:02;;;;;;;0.80;0.80;;;;;;;19.78;63.73;100003.19;5072667;28;20645;-71
2023/04/30 08:46:32;;;;;;;0.70;0.70;;;;;;;19.85;58.98;99982.84;5087748;28;20229;-72
2023/04/30 08:48:59;;;;;;;1.00;1.00;;;;;;;19.73;57.88;99993.66;5072639;28;20210;-71
2023/04/30 08:51:30;;;;;;;0.63;0.63;;;;;;;19.94;57.32;99995.78;5055485;28;20190;-72
2023/04/30 08:53:58;;;;;;;0.70;0.70;;;;;;;19.70;54.47;99968.31;5088842;28;20202;-71
2023/04/30 08:56:26;;;;;;;0.60;0.60;;;;;;;19.89;54.06;99992.41;5090834;28;20310;-72
2023/04/30 08:58:53;;;;;;;1.05;1.05;;;;;;;19.97;53.91;99987.84;5085754;28;20584;-72
2023/04/30 09:01:20;;;;;;;2.33;1.33;;;;;;;20.23;54.08;99987.16;5093158;28;20213;-73
2023/04/30 09:03:47;;;;;;;1.08;1.08;;;;;;;20.12;53.31;99990.06;5078999;28;20672;-72
2023/04/30 09:06:16;;;;;;;0.70;0.70;;;;;;;20.06;54.15;99984.97;5075323;28;20210;-72
2023/04/30 09:08:46;;;;;;;0.80;0.80;;;;;;;20.03;54.32;99982.41;5092668;28;20190;-71
2023/04/30 09:11:24;;;;;;;0.60;0.60;;;;;;;20.02;54.43;99978.03;5089786;28;20242;-74
2023/04/30 09:13:52;;;;;;;0.68;0.68;;;;;;;19.77;54.27;99961.13;5092562;28;20206;-75
2023/04/30 09:16:19;;;;;;;0.60;0.60;;;;;;;20.08;54.39;99967.34;5092096;28;20232;-73
2023/04/30 09:18:47;;;;;;;0.63;0.63;;;;;;;20.07;54.92;99963.00;5085264;28;20197;-73
2023/04/30 09:21:14;;;;;;;0.60;0.60;;;;;;;20.01;54.22;99957.88;5090309;28;20293;-73
2023/04/30 09:23:57;;;;;;;0.60;0.60;;;;;;;20.08;54.55;99963.88;5091478;28;20209;-71
2023/04/30 09:26:27;;;;;;;0.70;0.70;;;;;;;20.00;54.33;99955.31;5091660;28;20210;-71
2023/04/30 09:28:59;;;;;;;0.90;0.90;;;;;;;19.97;53.13;99953.63;5069985;28;20522;-72
2023/04/30 09:31:26;;;;;;;0.80;0.80;;;;;;;19.82;52.88;99945.22;5075042;28;20585;-72
2023/04/30 09:33:54;;;;;;;0.65;0.65;;;;;;;19.67;52.87;99930.69;5072729;28;20195;-74
2023/04/30 09:36:20;;;;;;;0.60;0.60;;;;;;;19.92;53.18;99952.84;5081628;28;20266;-73
2023/04/30 09:38:47;;;;;;;0.60;0.60;;;;;;;19.91;53.32;99930.06;5092383;28;20253;-73
2023/04/30 09:41:26;;;;;;;0.70;0.70;;;;;;;19.98;53.17;99942.16;5077296;28;20727;-73
2023/04/30 09:43:53;;;;;;;0.60;0.60;;;;;;;20.17;54.38;99945.19;5072095;28;20271;-74
2023/04/30 09:46:21;;;;;;;0.63;0.63;;;;;;;20.46;53.50;99944.44;5053673;28;20247;-73
2023/04/30 09:48:57;;;;;;;0.70;0.70;;;;;;;20.72;53.06;99945.47;5072858;28;20210;-72
2023/04/30 09:51:23;;;;;;;0.60;0.60;;;;;;;20.84;52.72;99946.88;5072892;28;20199;-74
2023/04/30 09:53:51;;;;;;;1.13;1.13;;;;;;;20.92;50.81;99923.78;5072792;28;20191;-75
2023/04/30 09:56:21;;;;;;;0.68;0.68;;;;;;;20.94;50.63;99921.97;5072549;28;20198;-74
2023/04/30 09:58:51;;;;;;;0.60;0.60;;;;;;;20.89;50.59;99937.06;5072463;28;20281;-74
2023/04/30 10:01:19;;;;;;;0.60;0.60;;;;;;;20.95;51.37;99941.28;5076605;28;20233;-69
2023/04/30 10:03:47;;;;;;;0.70;0.70;;;;;;;20.51;51.64;99918.84;5084329;28;20201;-69
2023/04/30 10:06:15;;;;;;;0.70;0.70;;;;;;;20.44;52.65;99935.75;5056642;28;20296;-74
2023/04/30 10:08:44;;;;;;;0.60;0.60;;;;;;;20.73;53.06;99934.00;5073015;28;20190;-67
2023/04/30 10:11:16;;;;;;;0.63;0.63;;;;;;;20.90;52.46;99925.63;5091782;28;20195;-71
2023/04/30 10:13:47;;;;;;;0.60;0.60;;;;;;;20.87;52.51;99925.69;5092442;28;20202;-69
2023/04/30 10:16:30;;;;;;;0.70;0.70;;;;;;;20.83;51.39;99926.72;5091774;28;20206;-70
2023/04/30 10:19:03;;;;;;;0.68;0.68;;;;;;;20.81;51.60;99923.25;5091518;28;20928;-71
2023/04/30 10:21:31;;;;;;;0.70;0.70;;;;;;;20.53;52.92;99901.22;5091731;28;20256;-71
2023/04/30 10:23:58;;;;;;;0.70;0.70;;;;;;;20.73;51.57;99933.13;5092232;28;20201;-70
2023/04/30 10:26:25;;;;;;;1.60;1.50;;;;;;;20.68;50.75;99913.97;5091238;28;20218;-71
2023/04/30 10:28:54;;;;;;;0.60;0.60;;;;;;;20.81;53.95;99904.78;5091790;28;20198;-73
2023/04/30 10:31:23;;;;;;;0.60;0.60;;;;;;;21.10;50.75;99914.47;5092082;28;20259;-75
2023/04/30 10:33:58;;;;;;;0.80;0.80;;;;;;;21.23;51.11;99914.06;5092287;28;20205;-74
2023/04/30 10:36:31;;;;;;;0.60;0.60;;;;;;;20.72;49.78;99891.91;5091363;28;20201;-76
2023/04/30 10:38:59;;;;;;;0.60;0.60;;;;;;;21.07;50.09;99906.66;5091718;28;20198;-74
2023/04/30 10:41:26;;;;;;;0.60;0.60;;;;;;;21.23;50.64;99898.25;5091524;28;20190;-74
2023/04/30 10:43:56;;;;;;;0.70;0.70;;;;;;;21.35;48.92;99896.13;5052381;28;20233;-76
2023/04/30 10:46:24;;;;;;;0.70;0.70;;;;;;;20.99;46.69;99829.56;5089305;28;20237;-74
2023/04/30 10:48:53;;;;;;;0.60;0.60;;;;;;;21.30;46.23;99890.16;5090592;28;20206;-74
2023/04/30 10:51:21;;;;;;;0.60;0.60;;;;;;;21.74;45.97;99890.44;5091003;28;20285;-73
2023/04/30 10:53:50;;;;;;;0.70;0.70;;;;;;;21.99;46.49;99900.19;5091463;28;20285;-74
2023/04/30 10:56:31;;;;;;;0.70;0.70;;;;;;;21.55;46.77;99888.44;5090911;28;20206;-74
2023/04/30 10:59:00;;;;;;;0.60;0.60;;;;;;;21.69;46.72;99891.47;5086811;28;20300;-73
2023/04/30 11:01:29;;;;;;;0.70;0.70;;;;;;;21.68;46.68;99884.50;5090776;28;21883;-74
2023/04/30 11:04:07;;;;;;;0.60;0.60;;;;;;;21.92;46.28;99891.63;5090765;28;20209;-72
2023/04/30 11:06:54;;;;;;;0.50;0.50;;;;;;;22.04;45.30;99891.19;5085820;28;20233;-74
2023/04/30 11:09:35;;;;;;;0.70;0.70;;;;;;;22.02;45.29;99869.25;5079295;28;20210;-75
2023/04/30 11:12:03;;;;;;;0.70;0.70;;;;;;;21.80;45.25;99852.38;5077090;28;20204;-73
2023/04/30 11:14:32;;;;;;;0.60;0.60;;;;;;;22.09;45.74;99886.59;5071952;28;20203;-75
2023/04/30 11:17:01;;;;;;;0.70;0.70;;;;;;;21.84;45.76;99880.41;5078892;28;20856;-73
2023/04/30 11:19:28;;;;;;;0.50;0.50;;;;;;;21.90;45.15;99880.25;5089255;28;20249;-74
2023/04/30 11:22:18;;;;;;;0.70;0.70;;;;;;;22.06;45.04;99884.06;5087305;28;20212;-73
2023/04/30 11:25:00;;;;;;;0.70;0.70;;;;;;;21.80;44.55;99894.63;5086859;28;20225;-73
2023/04/30 11:27:28;;;;;;;0.60;0.60;;;;;;;21.58;44.45;99883.09;5052959;28;20287;-72
2023/04/30 11:29:56;;;;;;;0.60;0.60;;;;;;;21.58;45.59;99888.34;5045995;28;20198;-72
2023/04/30 11:32:26;;;;;;;0.70;0.70;;;;;;;21.42;45.33;99876.56;5089264;28;20202;-71
2023/04/30 11:34:54;;;;;;;0.98;0.98;;;;;;;21.40;46.00;99883.69;5087651;28;20241;-70
2023/04/30 11:37:29;;;;;;;0.60;0.60;;;;;;;21.61;46.61;99878.56;5090075;28;20564;-70